Time;durP1;ratioP1;P1;durP2;ratioP2;P2;SDS_P1;SDS_P2;PMS_P1;PMS_P2;Temp;Humidity;BMP_temperature;BMP_pressure;BME280_temperature;BME280_humidity;BME280_pressure;Samples;Min_cycle;Max_cycle;Signal;HPM_P1;HPM_P2
2024/01/17 00:02:06;;;;;;;5.15;2.15;;;;;;;;;;5047505;28;20060;-63
2024/01/17 00:04:32;;;;;;;8.02;1.65;;;;;;;;;;5039293;28;20052;-65
2024/01/17 00:06:58;;;;;;;3.38;1.50;;;;;;;;;;5040466;28;20446;-64
2024/01/17 00:09:24;;;;;;;5.65;1.58;;;;;;;;;;5049731;28;20052;-64
2024/01/17 00:11:51;;;;;;;2.97;1.35;;;;;;;;;;5043553;28;20064;-65
2024/01/17 00:14:18;;;;;;;4.65;1.80;;;;;;;;;;5044912;28;20040;-64
2024/01/17 00:16:44;;;;;;;3.38;1.40;;;;;;;;;;5047730;28;20135;-63
2024/01/17 00:19:10;;;;;;;4.07;1.52;;;;;;;;;;5042553;28;20049;-63
2024/01/17 00:21:37;;;;;;;4.68;1.40;;;;;;;;;;5040510;28;20084;-64
2024/01/17 00:24:03;;;;;;;5.68;1.70;;;;;;;;;;5045694;28;20505;-66
2024/01/17 00:26:30;;;;;;;6.13;1.77;;;;;;;;;;5044630;28;20078;-64
2024/01/17 00:28:58;;;;;;;4.13;1.90;;;;;;;;;;5043491;28;20068;-62
2024/01/17 00:31:25;;;;;;;4.18;1.70;;;;;;;;;;5058437;28;20049;-64
2024/01/17 00:33:51;;;;;;;4.32;1.58;;;;;;;;;;5044022;28;20140;-63
2024/01/17 00:36:17;;;;;;;6.80;1.65;;;;;;;;;;5038008;28;20168;-63
2024/01/17 00:38:43;;;;;;;4.90;1.70;;;;;;;;;;5039933;28;20132;-67
2024/01/17 00:41:10;;;;;;;5.93;1.38;;;;;;;;;;5027510;28;20048;-64
2024/01/17 00:43:36;;;;;;;5.35;1.58;;;;;;;;;;5045439;28;20049;-64
2024/01/17 00:46:04;;;;;;;6.93;1.75;;;;;;;;;;5048262;28;20397;-64
2024/01/17 00:48:30;;;;;;;5.68;1.45;;;;;;;;;;5052410;28;20128;-66
2024/01/17 00:50:57;;;;;;;4.88;1.95;;;;;;;;;;5044042;28;20222;-64
2024/01/17 00:53:26;;;;;;;6.10;1.88;;;;;;;;;;5044726;28;20069;-67
2024/01/17 00:55:55;;;;;;;5.55;1.55;;;;;;;;;;5051226;28;20132;-66
2024/01/17 00:58:23;;;;;;;6.15;1.83;;;;;;;;;;5041353;28;20049;-64
2024/01/17 01:00:49;;;;;;;5.75;1.58;;;;;;;;;;5050977;28;20563;-66
2024/01/17 01:03:15;;;;;;;6.25;1.70;;;;;;;;;;5042612;28;20052;-66
2024/01/17 01:05:42;;;;;;;12.70;2.10;;;;;;;;;;5046545;28;20635;-64
2024/01/17 01:08:08;;;;;;;7.50;1.80;;;;;;;;;;5051015;28;20055;-66
2024/01/17 01:10:35;;;;;;;4.10;1.75;;;;;;;;;;5050834;28;20458;-64
2024/01/17 01:13:00;;;;;;;6.10;1.63;;;;;;;;;;5051724;28;20362;-63
2024/01/17 01:15:28;;;;;;;3.33;1.50;;;;;;;;;;5045780;28;20389;-64
2024/01/17 01:17:53;;;;;;;6.65;1.90;;;;;;;;;;5050951;28;20048;-65
2024/01/17 01:20:20;;;;;;;6.95;2.08;;;;;;;;;;5052065;28;20048;-65
2024/01/17 01:22:47;;;;;;;5.10;1.60;;;;;;;;;;5048671;28;20049;-64
2024/01/17 01:25:14;;;;;;;2.88;1.75;;;;;;;;;;5046535;28;20051;-63
2024/01/17 01:27:39;;;;;;;8.25;1.90;;;;;;;;;;5046053;28;20698;-63
2024/01/17 01:30:07;;;;;;;3.42;1.58;;;;;;;;;;5049064;28;20073;-64
2024/01/17 01:32:32;;;;;;;6.03;1.52;;;;;;;;;;5061315;28;20049;-64
2024/01/17 01:34:59;;;;;;;6.43;1.77;;;;;;;;;;5069566;28;20049;-64
2024/01/17 01:37:25;;;;;;;2.88;1.52;;;;;;;;;;5045831;28;20055;-65
2024/01/17 01:39:51;;;;;;;7.15;1.95;;;;;;;;;;5048026;28;20128;-64
2024/01/17 01:42:17;;;;;;;4.03;1.70;;;;;;;;;;5045561;28;20049;-64
2024/01/17 01:44:45;;;;;;;4.85;1.83;;;;;;;;;;5047227;28;20049;-64
2024/01/17 01:47:13;;;;;;;6.20;2.22;;;;;;;;;;5041685;28;20132;-64
2024/01/17 01:49:40;;;;;;;8.25;1.83;;;;;;;;;;5046308;28;20500;-63
2024/01/17 01:52:07;;;;;;;6.70;1.90;;;;;;;;;;5047697;28;20062;-63
2024/01/17 01:54:38;;;;;;;6.43;1.83;;;;;;;;;;5043585;28;20428;-64
2024/01/17 01:57:05;;;;;;;6.03;2.05;;;;;;;;;;5044539;28;20116;-64
2024/01/17 01:59:32;;;;;;;5.88;1.90;;;;;;;;;;5046309;28;20060;-66
2024/01/17 02:01:58;;;;;;;3.47;1.70;;;;;;;;;;5046108;28;20053;-64
2024/01/17 02:04:27;;;;;;;5.45;1.70;;;;;;;;;;5046653;28;20049;-64
2024/01/17 02:06:58;;;;;;;4.30;1.50;;;;;;;;;;5046848;28;20056;-64
2024/01/17 02:09:25;;;;;;;10.23;2.97;;;;;;;;;;5045350;28;20041;-65
2024/01/17 02:11:53;;;;;;;4.90;1.90;;;;;;;;;;5029125;28;20096;-65
2024/01/17 02:14:20;;;;;;;6.43;1.70;;;;;;;;;;5047652;28;20425;-63
2024/01/17 02:16:47;;;;;;;5.15;1.50;;;;;;;;;;5047845;28;20049;-64
2024/01/17 02:19:16;;;;;;;4.22;1.70;;;;;;;;;;5045584;28;20048;-63
2024/01/17 02:21:43;;;;;;;6.88;1.50;;;;;;;;;;5045263;28;21711;-64
2024/01/17 02:24:28;;;;;;;10.18;2.00;;;;;;;;;;5038204;28;20052;-63
2024/01/17 02:26:55;;;;;;;6.95;1.70;;;;;;;;;;5047656;28;20119;-63
2024/01/17 02:29:21;;;;;;;5.85;2.00;;;;;;;;;;5042557;28;20044;-64
2024/01/17 02:31:48;;;;;;;5.93;1.90;;;;;;;;;;5079289;28;20084;-65
2024/01/17 02:34:15;;;;;;;5.50;1.80;;;;;;;;;;5048712;28;20049;-64
2024/01/17 02:36:41;;;;;;;6.32;1.80;;;;;;;;;;5045392;28;20074;-62
2024/01/17 02:39:09;;;;;;;6.43;1.73;;;;;;;;;;5046341;28;20045;-63
2024/01/17 02:41:35;;;;;;;8.23;1.80;;;;;;;;;;5044424;28;20080;-63
2024/01/17 02:44:02;;;;;;;6.03;1.70;;;;;;;;;;5047994;28;20049;-64
2024/01/17 02:46:28;;;;;;;9.80;1.88;;;;;;;;;;5046403;28;20055;-64
2024/01/17 02:48:57;;;;;;;5.13;1.33;;;;;;;;;;5046935;28;20045;-65
2024/01/17 02:51:24;;;;;;;4.38;1.70;;;;;;;;;;5047256;28;20037;-65
2024/01/17 02:53:50;;;;;;;9.02;2.05;;;;;;;;;;5045483;28;20049;-64
2024/01/17 02:56:16;;;;;;;4.88;1.90;;;;;;;;;;5045579;28;20080;-64
2024/01/17 02:58:43;;;;;;;4.20;1.40;;;;;;;;;;5045390;28;20063;-64
2024/01/17 03:01:10;;;;;;;5.88;1.80;;;;;;;;;;5045973;28;20048;-64
2024/01/17 03:03:37;;;;;;;6.65;1.90;;;;;;;;;;5042926;28;20175;-65
2024/01/17 03:06:03;;;;;;;4.15;1.50;;;;;;;;;;5049090;28;20198;-66
2024/01/17 03:08:32;;;;;;;5.50;1.98;;;;;;;;;;5046923;28;20076;-65
2024/01/17 03:10:58;;;;;;;4.20;1.60;;;;;;;;;;5046227;28;20471;-65
2024/01/17 03:13:26;;;;;;;6.68;1.70;;;;;;;;;;5039248;28;20052;-64
2024/01/17 03:15:54;;;;;;;4.75;1.83;;;;;;;;;;5042962;28;20180;-63
2024/01/17 03:18:21;;;;;;;6.25;1.80;;;;;;;;;;5043962;28;20064;-64
2024/01/17 03:20:48;;;;;;;4.45;1.95;;;;;;;;;;5060097;28;20045;-63
2024/01/17 03:23:14;;;;;;;3.55;1.60;;;;;;;;;;5060283;28;20048;-64
2024/01/17 03:25:40;;;;;;;4.30;1.88;;;;;;;;;;5042172;28;20500;-64
2024/01/17 03:28:07;;;;;;;4.35;1.77;;;;;;;;;;5043765;28;20056;-64
2024/01/17 03:30:34;;;;;;;4.50;1.90;;;;;;;;;;5045175;28;20054;-63
2024/01/17 03:33:00;;;;;;;6.82;1.85;;;;;;;;;;5060782;28;20057;-66
2024/01/17 03:35:25;;;;;;;7.10;2.08;;;;;;;;;;5044891;28;20052;-64
2024/01/17 03:37:52;;;;;;;3.17;1.70;;;;;;;;;;5045869;28;20053;-64
2024/01/17 03:40:18;;;;;;;6.53;1.70;;;;;;;;;;5047136;28;20126;-63
2024/01/17 03:42:45;;;;;;;9.32;1.85;;;;;;;;;;5047575;28;20106;-62
2024/01/17 03:45:12;;;;;;;5.85;1.90;;;;;;;;;;5040096;28;20099;-65
2024/01/17 03:47:39;;;;;;;6.07;1.80;;;;;;;;;;5058580;28;20056;-64
2024/01/17 03:50:05;;;;;;;6.57;1.83;;;;;;;;;;5044294;28;20083;-63
2024/01/17 03:52:31;;;;;;;7.40;1.90;;;;;;;;;;5044853;28;20042;-64
2024/01/17 03:54:57;;;;;;;6.07;1.98;;;;;;;;;;5045299;28;20172;-62
2024/01/17 03:57:23;;;;;;;4.22;1.50;;;;;;;;;;5042271;28;20053;-63
2024/01/17 03:59:50;;;;;;;7.13;2.10;;;;;;;;;;5040826;28;20087;-65
2024/01/17 04:02:16;;;;;;;3.92;1.73;;;;;;;;;;5043286;28;20052;-63
2024/01/17 04:04:44;;;;;;;6.85;1.58;;;;;;;;;;5037503;28;20049;-65
2024/01/17 04:07:13;;;;;;;6.22;2.03;;;;;;;;;;5042285;28;20065;-64
2024/01/17 04:09:38;;;;;;;7.88;2.40;;;;;;;;;;5038217;28;20072;-65
2024/01/17 04:12:05;;;;;;;5.68;1.95;;;;;;;;;;5043605;28;20520;-67
2024/01/17 04:14:31;;;;;;;5.88;3.00;;;;;;;;;;5062371;28;20381;-65
2024/01/17 04:16:58;;;;;;;5.68;1.80;;;;;;;;;;5042403;28;20055;-65
2024/01/17 04:19:23;;;;;;;5.57;1.85;;;;;;;;;;5045554;28;20044;-64
2024/01/17 04:21:56;;;;;;;5.80;2.10;;;;;;;;;;5045573;28;20095;-63
2024/01/17 04:24:24;;;;;;;5.57;2.03;;;;;;;;;;5046315;28;20336;-65
2024/01/17 04:26:55;;;;;;;8.27;2.17;;;;;;;;;;5043591;28;20049;-65
2024/01/17 04:29:22;;;;;;;6.15;2.28;;;;;;;;;;5043842;28;20056;-65
2024/01/17 04:31:48;;;;;;;5.25;1.88;;;;;;;;;;5043197;28;20045;-65
2024/01/17 04:34:14;;;;;;;10.50;2.10;;;;;;;;;;5043760;28;20184;-65
2024/01/17 04:36:42;;;;;;;5.55;2.13;;;;;;;;;;5040517;28;20048;-65
2024/01/17 04:39:08;;;;;;;5.07;1.70;;;;;;;;;;5047862;28;20064;-62
2024/01/17 04:41:36;;;;;;;4.50;1.60;;;;;;;;;;5049779;28;20034;-64
2024/01/17 04:44:03;;;;;;;6.97;2.50;;;;;;;;;;5047967;28;20052;-63
2024/01/17 04:46:29;;;;;;;5.15;1.98;;;;;;;;;;5049278;28;20515;-63
2024/01/17 04:48:55;;;;;;;5.72;2.08;;;;;;;;;;5040459;28;20038;-63
2024/01/17 04:51:22;;;;;;;4.53;1.90;;;;;;;;;;5045189;28;20128;-64
2024/01/17 04:53:49;;;;;;;10.98;2.67;;;;;;;;;;5046296;28;20065;-63
2024/01/17 04:56:18;;;;;;;6.55;2.40;;;;;;;;;;5049955;28;20053;-66
2024/01/17 04:58:44;;;;;;;5.75;1.90;;;;;;;;;;5048268;28;20056;-66
2024/01/17 05:01:10;;;;;;;9.93;2.65;;;;;;;;;;5048042;28;20613;-65
2024/01/17 05:03:37;;;;;;;7.38;2.00;;;;;;;;;;5047007;28;20120;-64
2024/01/17 05:06:05;;;;;;;4.68;1.90;;;;;;;;;;5045625;28;20074;-65
2024/01/17 05:08:31;;;;;;;9.85;2.25;;;;;;;;;;5046730;28;20105;-64
2024/01/17 05:10:57;;;;;;;7.07;1.90;;;;;;;;;;5044927;28;20055;-63
2024/01/17 05:13:24;;;;;;;5.45;2.15;;;;;;;;;;5046619;28;20052;-63
2024/01/17 05:15:50;;;;;;;9.50;2.40;;;;;;;;;;5048257;28;20522;-66
2024/01/17 05:18:18;;;;;;;5.82;2.50;;;;;;;;;;5049224;28;20102;-62
2024/01/17 05:20:44;;;;;;;11.80;2.13;;;;;;;;;;5050822;28;20045;-65
2024/01/17 05:23:11;;;;;;;6.47;2.13;;;;;;;;;;5049707;28;20428;-64
2024/01/17 05:25:39;;;;;;;8.20;2.22;;;;;;;;;;5048264;28;20546;-65
2024/01/17 05:28:06;;;;;;;7.28;2.00;;;;;;;;;;5047191;28;20183;-64
2024/01/17 05:30:32;;;;;;;6.45;2.15;;;;;;;;;;5041096;28;20064;-64
2024/01/17 05:33:02;;;;;;;5.55;2.00;;;;;;;;;;5050615;28;20052;-65
2024/01/17 05:35:31;;;;;;;7.03;2.50;;;;;;;;;;5050000;28;20051;-66
2024/01/17 05:37:59;;;;;;;9.15;2.47;;;;;;;;;;5052987;28;20049;-64
2024/01/17 05:40:27;;;;;;;7.40;2.55;;;;;;;;;;5049207;28;20049;-64
2024/01/17 05:42:53;;;;;;;7.95;1.98;;;;;;;;;;5044687;28;20135;-63
2024/01/17 05:45:19;;;;;;;7.22;2.20;;;;;;;;;;5046619;28;20052;-63
2024/01/17 05:47:45;;;;;;;7.93;2.30;;;;;;;;;;5049764;28;20040;-65
2024/01/17 05:50:15;;;;;;;9.75;2.33;;;;;;;;;;5047362;28;20159;-65
2024/01/17 05:52:42;;;;;;;7.45;2.03;;;;;;;;;;5051788;28;20052;-64
2024/01/17 05:55:13;;;;;;;3.05;1.80;;;;;;;;;;5043386;28;20136;-63
2024/01/17 05:57:40;;;;;;;8.40;1.90;;;;;;;;;;5048190;28;20135;-65
2024/01/17 06:00:12;;;;;;;8.57;2.17;;;;;;;;;;5048344;28;20227;-63
2024/01/17 06:02:40;;;;;;;4.68;2.17;;;;;;;;;;5047850;28;20057;-64
2024/01/17 06:05:08;;;;;;;8.60;2.20;;;;;;;;;;5044913;28;20514;-64
2024/01/17 06:07:35;;;;;;;10.75;2.88;;;;;;;;;;5062158;28;20041;-66
2024/01/17 06:10:02;;;;;;;6.75;2.28;;;;;;;;;;5047945;28;20049;-64
2024/01/17 06:12:28;;;;;;;6.32;2.20;;;;;;;;;;5046895;28;20445;-65
2024/01/17 06:14:57;;;;;;;7.30;2.50;;;;;;;;;;5046823;28;20099;-73
2024/01/17 06:17:25;;;;;;;8.02;2.13;;;;;;;;;;5047463;28;20053;-64
2024/01/17 06:19:52;;;;;;;6.93;2.63;;;;;;;;;;5052366;28;20133;-64
2024/01/17 06:22:18;;;;;;;9.05;2.30;;;;;;;;;;5044547;28;20159;-66
2024/01/17 06:24:46;;;;;;;9.85;2.88;;;;;;;;;;5046513;28;20052;-64
2024/01/17 06:27:17;;;;;;;5.85;2.30;;;;;;;;;;5043635;28;20060;-66
2024/01/17 06:29:51;;;;;;;8.88;2.40;;;;;;;;;;5039426;28;20416;-63
2024/01/17 06:32:17;;;;;;;9.77;2.47;;;;;;;;;;5045163;28;20060;-63
2024/01/17 06:34:43;;;;;;;9.35;2.40;;;;;;;;;;5045860;28;20061;-67
2024/01/17 06:37:09;;;;;;;7.78;2.70;;;;;;;;;;5043378;28;20045;-69
2024/01/17 06:39:39;;;;;;;7.28;2.45;;;;;;;;;;5052949;28;20052;-64
2024/01/17 06:42:06;;;;;;;9.52;3.10;;;;;;;;;;5051262;28;20499;-64
2024/01/17 06:44:33;;;;;;;9.50;3.10;;;;;;;;;;5045698;28;20045;-66
2024/01/17 06:47:00;;;;;;;6.90;2.50;;;;;;;;;;5046452;28;20052;-65
2024/01/17 06:49:29;;;;;;;7.60;2.67;;;;;;;;;;5046370;28;20056;-67
2024/01/17 06:51:56;;;;;;;7.63;2.70;;;;;;;;;;5045179;28;20076;-67
2024/01/17 06:54:23;;;;;;;8.13;2.80;;;;;;;;;;5045945;28;20126;-66
2024/01/17 06:56:50;;;;;;;14.95;2.53;;;;;;;;;;5046175;28;20049;-68
2024/01/17 06:59:17;;;;;;;6.13;2.33;;;;;;;;;;5043538;28;20053;-69
2024/01/17 07:01:46;;;;;;;13.43;3.00;;;;;;;;;;5043753;28;20049;-67
2024/01/17 07:04:14;;;;;;;9.38;2.83;;;;;;;;;;5055799;28;20060;-69
2024/01/17 07:06:40;;;;;;;10.43;3.28;;;;;;;;;;5043273;28;20065;-67
2024/01/17 07:09:10;;;;;;;12.05;3.97;;;;;;;;;;5060890;28;20075;-69
2024/01/17 07:11:37;;;;;;;14.02;3.88;;;;;;;;;;5042366;28;20075;-66
2024/01/17 07:14:07;;;;;;;10.13;3.17;;;;;;;;;;5055766;28;20675;-68
2024/01/17 07:16:34;;;;;;;13.88;3.78;;;;;;;;;;5045156;28;20052;-68
2024/01/17 07:19:00;;;;;;;19.23;4.43;;;;;;;;;;5046054;28;20044;-65
2024/01/17 07:21:26;;;;;;;14.02;3.50;;;;;;;;;;5047109;28;20081;-67
2024/01/17 07:23:52;;;;;;;13.32;3.47;;;;;;;;;;5042162;28;20205;-65
2024/01/17 07:26:18;;;;;;;12.05;3.00;;;;;;;;;;5060233;28;20472;-65
2024/01/17 07:28:47;;;;;;;10.05;3.28;;;;;;;;;;5045933;28;20045;-67
2024/01/17 07:31:15;;;;;;;11.77;3.25;;;;;;;;;;5044956;28;20045;-67
2024/01/17 07:33:41;;;;;;;17.05;3.72;;;;;;;;;;5061906;28;20401;-64
2024/01/17 07:36:08;;;;;;;12.57;3.92;;;;;;;;;;5042564;28;20068;-67
2024/01/17 07:38:34;;;;;;;14.52;3.40;;;;;;;;;;5048585;28;20140;-66
2024/01/17 07:41:01;;;;;;;14.75;3.53;;;;;;;;;;5046388;28;20483;-68
2024/01/17 07:43:29;;;;;;;9.68;3.08;;;;;;;;;;5027908;28;20115;-67
2024/01/17 07:45:56;;;;;;;14.90;3.85;;;;;;;;;;5043164;28;20063;-70
2024/01/17 07:48:23;;;;;;;19.40;3.50;;;;;;;;;;5045006;28;20497;-66
2024/01/17 07:50:49;;;;;;;17.15;3.65;;;;;;;;;;5047248;28;20048;-64
2024/01/17 07:53:16;;;;;;;11.05;2.53;;;;;;;;;;5044679;28;20217;-65
2024/01/17 07:55:42;;;;;;;20.73;3.65;;;;;;;;;;5040639;28;20086;-67
2024/01/17 07:58:11;;;;;;;21.85;4.10;;;;;;;;;;5043375;28;20136;-65
2024/01/17 08:00:37;;;;;;;13.68;3.13;;;;;;;;;;5043458;28;20802;-66
2024/01/17 08:03:04;;;;;;;8.57;2.92;;;;;;;;;;5045803;28;20053;-67
2024/01/17 08:05:33;;;;;;;13.98;4.03;;;;;;;;;;5061274;28;20477;-65
2024/01/17 08:08:00;;;;;;;19.15;3.33;;;;;;;;;;5040735;28;20049;-66
2024/01/17 08:10:26;;;;;;;12.05;3.50;;;;;;;;;;5048464;28;20118;-65
2024/01/17 08:13:34;;;;;;;15.00;3.47;;;;;;;;;;5045196;28;20071;-66
2024/01/17 08:16:22;;;;;;;10.45;3.58;;;;;;;;;;5045131;28;20509;-65
2024/01/17 08:18:49;;;;;;;17.02;3.45;;;;;;;;;;5045640;28;20045;-63
2024/01/17 08:21:15;;;;;;;9.15;2.78;;;;;;;;;;5045450;28;20053;-64
2024/01/17 08:23:42;;;;;;;18.80;3.90;;;;;;;;;;5041916;28;20056;-66
2024/01/17 08:26:08;;;;;;;12.85;3.22;;;;;;;;;;5045561;28;20531;-65
2024/01/17 08:28:35;;;;;;;12.23;3.30;;;;;;;;;;5047163;28;20048;-64
2024/01/17 08:31:03;;;;;;;13.13;3.00;;;;;;;;;;5045191;28;20053;-65
2024/01/17 08:33:29;;;;;;;7.70;3.20;;;;;;;;;;5045035;28;20110;-64
2024/01/17 08:35:56;;;;;;;17.10;4.00;;;;;;;;;;5040883;28;20491;-67
2024/01/17 08:38:21;;;;;;;10.38;3.08;;;;;;;;;;5045014;28;20056;-66
2024/01/17 08:40:48;;;;;;;14.40;3.80;;;;;;;;;;5045850;28;20695;-64
2024/01/17 08:43:15;;;;;;;10.35;3.15;;;;;;;;;;5044994;28;20060;-64
2024/01/17 08:45:41;;;;;;;12.77;3.53;;;;;;;;;;5045682;28;20053;-65
2024/01/17 08:48:06;;;;;;;12.80;3.88;;;;;;;;;;5044590;28;20110;-66
2024/01/17 08:50:33;;;;;;;18.35;4.85;;;;;;;;;;5041960;28;20123;-66
2024/01/17 08:52:59;;;;;;;16.67;4.53;;;;;;;;;;5038471;28;20065;-66
2024/01/17 08:55:27;;;;;;;18.23;4.70;;;;;;;;;;5061016;28;20057;-66
2024/01/17 08:57:54;;;;;;;18.08;5.13;;;;;;;;;;5045272;28;20461;-66
2024/01/17 09:00:22;;;;;;;18.83;5.00;;;;;;;;;;5049991;28;20470;-64
2024/01/17 09:02:48;;;;;;;16.38;5.60;;;;;;;;;;5049255;28;20053;-65
2024/01/17 09:05:18;;;;;;;13.35;5.00;;;;;;;;;;5046389;28;20048;-64
2024/01/17 09:07:45;;;;;;;11.95;5.50;;;;;;;;;;5050088;28;20048;-64
2024/01/17 09:10:13;;;;;;;13.35;4.97;;;;;;;;;;5043389;28;20045;-65
2024/01/17 09:12:40;;;;;;;13.50;5.28;;;;;;;;;;5044125;28;20060;-66
2024/01/17 09:15:09;;;;;;;21.65;5.43;;;;;;;;;;5050387;28;20037;-66
2024/01/17 09:17:35;;;;;;;21.27;5.10;;;;;;;;;;5056259;28;20524;-65
2024/01/17 09:20:03;;;;;;;21.45;4.40;;;;;;;;;;5044776;28;20560;-64
2024/01/17 09:22:30;;;;;;;11.63;3.80;;;;;;;;;;5046933;28;20114;-66
2024/01/17 09:24:56;;;;;;;8.80;3.60;;;;;;;;;;5047858;28;20052;-64
2024/01/17 09:27:22;;;;;;;15.52;4.57;;;;;;;;;;5048433;28;20088;-66
2024/01/17 09:29:53;;;;;;;7.45;3.28;;;;;;;;;;5048446;28;20533;-66
2024/01/17 09:32:19;;;;;;;8.57;2.92;;;;;;;;;;5058364;28;20153;-63
2024/01/17 09:34:47;;;;;;;8.63;2.90;;;;;;;;;;5060111;28;20080;-66
2024/01/17 09:37:15;;;;;;;9.43;2.38;;;;;;;;;;5047386;28;20080;-64
2024/01/17 09:39:43;;;;;;;11.57;2.63;;;;;;;;;;5048150;28;20055;-67
2024/01/17 09:42:17;;;;;;;10.02;2.60;;;;;;;;;;5067545;28;20072;-65
2024/01/17 09:44:44;;;;;;;12.27;2.67;;;;;;;;;;5043994;28;20131;-65
2024/01/17 09:47:18;;;;;;;9.48;2.90;;;;;;;;;;5050429;28;20041;-67
2024/01/17 09:49:45;;;;;;;14.63;3.28;;;;;;;;;;5042192;28;20102;-66
2024/01/17 09:52:15;;;;;;;9.82;3.17;;;;;;;;;;5053921;28;20111;-64
2024/01/17 09:54:43;;;;;;;11.70;3.85;;;;;;;;;;5050903;28;20053;-65
2024/01/17 09:57:18;;;;;;;8.43;2.83;;;;;;;;;;5048937;28;20048;-65
2024/01/17 09:59:48;;;;;;;10.98;3.05;;;;;;;;;;5047789;28;20069;-66
2024/01/17 10:02:16;;;;;;;9.98;3.45;;;;;;;;;;5044400;28;20079;-65
2024/01/17 10:04:44;;;;;;;5.53;2.83;;;;;;;;;;5047226;28;20088;-63
2024/01/17 10:07:10;;;;;;;10.18;2.53;;;;;;;;;;5050645;28;20466;-65
2024/01/17 10:09:39;;;;;;;10.88;2.70;;;;;;;;;;5050175;28;20053;-65
2024/01/17 10:12:06;;;;;;;8.15;2.67;;;;;;;;;;5046445;28;20156;-65
2024/01/17 10:14:32;;;;;;;15.43;2.65;;;;;;;;;;5049343;28;20472;-63
2024/01/17 10:16:58;;;;;;;27.38;2.85;;;;;;;;;;5051096;28;20506;-64
2024/01/17 10:19:25;;;;;;;21.88;3.38;;;;;;;;;;5048483;28;20106;-65
2024/01/17 10:21:51;;;;;;;22.60;2.83;;;;;;;;;;5048742;28;20141;-63
2024/01/17 10:24:17;;;;;;;16.80;3.13;;;;;;;;;;5047096;28;20173;-65
2024/01/17 10:26:45;;;;;;;12.05;1.90;;;;;;;;;;5051221;28;20033;-64
2024/01/17 10:29:11;;;;;;;5.70;1.60;;;;;;;;;;5051731;28;20057;-63
2024/01/17 10:31:39;;;;;;;9.77;2.38;;;;;;;;;;5050268;28;20455;-66
2024/01/17 10:34:08;;;;;;;10.27;2.25;;;;;;;;;;5047452;28;20350;-67
2024/01/17 10:36:39;;;;;;;12.52;2.42;;;;;;;;;;5048341;28;20072;-65
2024/01/17 10:39:06;;;;;;;9.63;2.60;;;;;;;;;;5046505;28;20056;-68
2024/01/17 10:41:32;;;;;;;9.50;1.80;;;;;;;;;;5046474;28;20045;-65
2024/01/17 10:44:04;;;;;;;5.55;2.38;;;;;;;;;;5058130;28;20785;-65
2024/01/17 10:46:33;;;;;;;12.20;2.30;;;;;;;;;;5046354;28;20037;-65
2024/01/17 10:48:59;;;;;;;7.28;1.75;;;;;;;;;;5058595;28;20079;-68
2024/01/17 10:51:25;;;;;;;11.73;1.90;;;;;;;;;;5043918;28;20106;-65
2024/01/17 10:53:54;;;;;;;10.90;1.80;;;;;;;;;;5046823;28;20052;-66
2024/01/17 10:56:21;;;;;;;11.07;1.70;;;;;;;;;;5052137;28;20110;-66
2024/01/17 10:58:52;;;;;;;10.57;1.60;;;;;;;;;;5052266;28;20072;-67
2024/01/17 11:01:30;;;;;;;5.10;1.83;;;;;;;;;;5049862;28;20155;-64
2024/01/17 11:04:13;;;;;;;9.05;2.13;;;;;;;;;;5046910;28;20094;-64
2024/01/17 11:06:40;;;;;;;10.30;1.70;;;;;;;;;;5042341;28;20060;-64
2024/01/17 11:09:10;;;;;;;11.73;1.67;;;;;;;;;;5050744;28;20045;-66
2024/01/17 11:11:39;;;;;;;7.55;1.83;;;;;;;;;;5045976;28;20568;-67
2024/01/17 11:14:08;;;;;;;9.80;1.63;;;;;;;;;;5047693;28;20096;-64
2024/01/17 11:16:35;;;;;;;13.70;1.95;;;;;;;;;;5043384;28;20045;-64
2024/01/17 11:19:03;;;;;;;13.00;1.70;;;;;;;;;;5045063;28;20037;-64
2024/01/17 11:21:34;;;;;;;9.88;1.73;;;;;;;;;;5046318;28;20471;-66
2024/01/17 11:24:03;;;;;;;5.72;1.80;;;;;;;;;;5060489;28;20057;-64
2024/01/17 11:26:50;;;;;;;20.75;2.30;;;;;;;;;;5046986;28;20053;-63
2024/01/17 11:29:35;;;;;;;10.27;1.80;;;;;;;;;;5045383;28;20053;-64
2024/01/17 11:32:28;;;;;;;7.78;1.70;;;;;;;;;;5044149;28;20063;-63
2024/01/17 11:34:55;;;;;;;8.25;1.70;;;;;;;;;;5045793;28;20145;-65
2024/01/17 11:37:34;;;;;;;6.85;1.60;;;;;;;;;;5045034;28;20070;-67
2024/01/17 11:40:01;;;;;;;7.30;1.67;;;;;;;;;;5037046;28;20141;-66
2024/01/17 11:42:27;;;;;;;13.77;1.50;;;;;;;;;;5044992;28;20044;-67
2024/01/17 11:44:53;;;;;;;4.80;1.27;;;;;;;;;;5045483;28;20037;-64
2024/01/17 11:47:20;;;;;;;6.18;1.52;;;;;;;;;;5060713;28;20048;-66
2024/01/17 11:49:47;;;;;;;7.35;1.33;;;;;;;;;;5046949;28;20064;-66
2024/01/17 11:52:32;;;;;;;11.85;1.92;;;;;;;;;;5055692;28;20114;-65
2024/01/17 11:55:03;;;;;;;5.55;1.13;;;;;;;;;;5051176;28;20057;-67
2024/01/17 11:57:33;;;;;;;3.78;1.40;;;;;;;;;;5052985;28;20425;-66
2024/01/17 12:00:12;;;;;;;4.78;1.52;;;;;;;;;;5077150;28;20045;-65
2024/01/17 12:02:41;;;;;;;7.90;1.60;;;;;;;;;;5046786;28;20489;-65
2024/01/17 12:05:15;;;;;;;9.82;1.35;;;;;;;;;;5050758;28;20073;-66
2024/01/17 12:07:43;;;;;;;8.52;1.25;;;;;;;;;;5045523;28;20051;-65
2024/01/17 12:10:10;;;;;;;8.63;1.55;;;;;;;;;;5044680;28;20057;-65
2024/01/17 12:12:37;;;;;;;27.88;2.85;;;;;;;;;;5033794;28;20041;-72
2024/01/17 12:15:07;;;;;;;23.08;2.33;;;;;;;;;;5041161;28;20489;-70
2024/01/17 12:17:34;;;;;;;22.90;1.98;;;;;;;;;;5053118;28;20073;-67
2024/01/17 12:20:02;;;;;;;24.45;1.52;;;;;;;;;;5044464;28;20048;-66
2024/01/17 12:22:27;;;;;;;20.77;1.95;;;;;;;;;;5060338;28;20065;-66
2024/01/17 12:24:55;;;;;;;31.10;2.80;;;;;;;;;;5035388;28;20237;-65
2024/01/17 12:27:20;;;;;;;34.33;2.85;;;;;;;;;;5042819;28;20049;-65
2024/01/17 12:29:50;;;;;;;31.48;3.17;;;;;;;;;;5047575;28;20404;-68
2024/01/17 12:32:17;;;;;;;39.25;2.90;;;;;;;;;;5049696;28;20055;-68
2024/01/17 12:34:45;;;;;;;32.95;2.03;;;;;;;;;;5041442;28;20044;-66
2024/01/17 12:37:12;;;;;;;29.85;1.92;;;;;;;;;;5052901;28;20618;-67
2024/01/17 12:39:38;;;;;;;23.08;2.20;;;;;;;;;;5051873;28;20049;-66
2024/01/17 12:42:04;;;;;;;42.70;2.65;;;;;;;;;;5043192;28;20079;-65
2024/01/17 12:44:33;;;;;;;18.73;2.08;;;;;;;;;;5043791;28;20045;-69
2024/01/17 12:47:00;;;;;;;31.13;2.03;;;;;;;;;;5044133;28;20136;-66
2024/01/17 12:49:29;;;;;;;26.45;2.25;;;;;;;;;;5038824;28;20451;-66
2024/01/17 12:52:16;;;;;;;40.65;2.22;;;;;;;;;;5024837;28;20061;-64
2024/01/17 12:54:43;;;;;;;39.55;2.40;;;;;;;;;;5044109;28;20057;-66
2024/01/17 12:57:11;;;;;;;55.63;4.30;;;;;;;;;;5045935;28;20071;-66
2024/01/17 12:59:42;;;;;;;42.25;2.47;;;;;;;;;;5036343;28;20098;-67
2024/01/17 13:02:14;;;;;;;47.30;2.70;;;;;;;;;;5047894;28;20408;-68
2024/01/17 13:04:40;;;;;;;31.55;2.53;;;;;;;;;;5047053;28;20079;-68
2024/01/17 13:07:06;;;;;;;26.95;1.92;;;;;;;;;;5047627;28;20457;-67
2024/01/17 13:09:33;;;;;;;25.10;1.63;;;;;;;;;;5047516;28;20279;-67
2024/01/17 13:12:00;;;;;;;18.13;1.80;;;;;;;;;;5053322;28;20123;-66
2024/01/17 13:14:29;;;;;;;13.60;1.38;;;;;;;;;;5047433;28;20040;-66
2024/01/17 13:16:57;;;;;;;35.95;2.15;;;;;;;;;;5050434;28;20059;-66
2024/01/17 13:19:24;;;;;;;32.75;3.78;;;;;;;;;;5047725;28;20060;-65
2024/01/17 13:21:50;;;;;;;32.63;2.63;;;;;;;;;;5050053;28;20051;-65
2024/01/17 13:24:21;;;;;;;22.08;1.80;;;;;;;;;;5049423;28;20053;-65
2024/01/17 13:26:48;;;;;;;25.27;2.17;;;;;;;;;;5048668;28;20484;-65
2024/01/17 13:29:17;;;;;;;25.35;2.22;;;;;;;;;;5048331;28;20672;-65
2024/01/17 13:31:44;;;;;;;33.17;1.95;;;;;;;;;;5049810;28;20041;-66
2024/01/17 13:34:11;;;;;;;20.42;1.45;;;;;;;;;;5049311;28;20123;-65
2024/01/17 13:36:37;;;;;;;9.10;1.25;;;;;;;;;;5049761;28;20045;-64
2024/01/17 13:39:08;;;;;;;20.45;1.58;;;;;;;;;;5047513;28;20501;-65
2024/01/17 13:41:35;;;;;;;7.97;1.25;;;;;;;;;;5063209;28;20310;-68
2024/01/17 13:44:05;;;;;;;12.90;1.52;;;;;;;;;;5047028;28;20480;-68
2024/01/17 13:46:31;;;;;;;20.38;1.15;;;;;;;;;;5046771;28;20666;-67
2024/01/17 13:48:57;;;;;;;13.77;1.73;;;;;;;;;;5060977;28;20531;-65
2024/01/17 13:51:30;;;;;;;17.20;1.88;;;;;;;;;;5045017;28;20069;-65
2024/01/17 13:53:56;;;;;;;24.15;1.67;;;;;;;;;;5045005;28;20215;-68
2024/01/17 13:56:23;;;;;;;17.45;1.80;;;;;;;;;;5046443;28;20148;-65
2024/01/17 13:58:52;;;;;;;26.35;1.77;;;;;;;;;;5049313;28;20053;-66
2024/01/17 14:01:20;;;;;;;28.92;1.85;;;;;;;;;;5053446;28;20057;-65
2024/01/17 14:03:46;;;;;;;12.88;1.40;;;;;;;;;;5047906;28;20760;-66
2024/01/17 14:06:14;;;;;;;9.23;1.40;;;;;;;;;;5054356;28;20135;-65
2024/01/17 14:08:40;;;;;;;12.02;1.38;;;;;;;;;;5041908;28;20049;-65
2024/01/17 14:11:07;;;;;;;9.55;1.27;;;;;;;;;;5050132;28;20045;-65
2024/01/17 14:13:35;;;;;;;12.35;1.02;;;;;;;;;;5047133;28;20048;-66
2024/01/17 14:16:01;;;;;;;19.73;1.38;;;;;;;;;;5046294;28;20049;-65
2024/01/17 14:18:30;;;;;;;7.63;1.17;;;;;;;;;;5049700;28;20048;-67
2024/01/17 14:20:56;;;;;;;15.45;1.40;;;;;;;;;;5049322;28;20041;-66
2024/01/17 14:23:23;;;;;;;5.28;1.05;;;;;;;;;;5044404;28;20389;-67
2024/01/17 14:25:49;;;;;;;8.07;1.10;;;;;;;;;;5048136;28;20045;-65
2024/01/17 14:28:15;;;;;;;9.48;1.27;;;;;;;;;;5046586;28;20049;-66
2024/01/17 14:30:42;;;;;;;6.53;1.13;;;;;;;;;;5048005;28;20056;-66
2024/01/17 14:33:18;;;;;;;7.38;1.45;;;;;;;;;;5052567;28;20056;-67
2024/01/17 14:35:45;;;;;;;7.40;1.50;;;;;;;;;;5053373;28;20473;-66
2024/01/17 14:38:13;;;;;;;11.65;1.60;;;;;;;;;;5050490;28;20713;-66
2024/01/17 14:40:40;;;;;;;7.30;1.10;;;;;;;;;;5040609;28;20045;-66
2024/01/17 14:43:09;;;;;;;7.03;1.15;;;;;;;;;;5045145;28;20049;-66